Time;durP1;ratioP1;P1;durP2;ratioP2;P2;SDS_P1;SDS_P2;PMS_P1;PMS_P2;Temp;Humidity;BMP_temperature;BMP_pressure;BME280_temperature;BME280_humidity;BME280_pressure;Samples;Min_cycle;Max_cycle;Signal;HPM_P1;HPM_P2
2023/02/11 00:00:07;;;;;;;;;;;;;;;3.76;77.80;101996.14;107316;1261;59985;-82
2023/02/11 00:02:53;;;;;;;;;;;;;;;3.76;77.84;101979.31;107187;1257;124264;-82
2023/02/11 00:05:20;;;;;;;;;;;;;;;3.77;77.90;101980.93;107224;1254;61269;-83
2023/02/11 00:07:46;;;;;;;;;;;;;;;3.79;77.89;101980.71;107089;1260;124167;-82
2023/02/11 00:10:14;;;;;;;;;;;;;;;3.78;77.86;101973.17;107322;1260;61352;-82
2023/02/11 00:12:41;;;;;;;;;;;;;;;3.79;77.73;101977.23;107341;1258;61286;-81
2023/02/11 00:15:08;;;;;;;;;;;;;;;3.78;77.86;101970.73;107152;1257;124261;-82
2023/02/11 00:17:34;;;;;;;;;;;;;;;3.78;77.87;101966.77;107357;1261;61218;-82
2023/02/11 00:20:00;;;;;;;;;;;;;;;3.77;77.76;101962.86;107173;1257;124605;-81
2023/02/11 00:22:59;;;;;;;;;;;;;;;3.75;77.76;101958.23;106987;1262;61270;-83
2023/02/11 00:25:25;;;;;;;;;;;;;;;3.75;77.85;101950.21;107319;1257;61237;-83
2023/02/11 00:27:51;;;;;;;;;;;;;;;3.75;77.83;101934.40;107239;1257;124958;-82
2023/02/11 00:30:17;;;;;;;;;;;;;;;3.75;77.79;101918.80;107583;1258;60424;-82
2023/02/11 00:32:44;;;;;;;;;;;;;;;3.74;77.85;101902.44;107381;1257;125156;-82
2023/02/11 00:35:10;;;;;;;;;;;;;;;3.75;77.76;101886.48;107365;1259;61238;-79
2023/02/11 00:37:38;;;;;;;;;;;;;;;3.75;77.85;101877.84;107215;1260;124796;-83
2023/02/11 00:40:09;;;;;;;;;;;;;;;3.77;77.81;101881.61;107221;1262;61355;-82
2023/02/11 00:42:36;;;;;;;;;;;;;;;3.81;77.98;101869.75;107104;1256;67019;-82
2023/02/11 00:45:02;;;;;;;;;;;;;;;3.83;77.87;101861.21;106992;1262;124991;-82
2023/02/11 00:47:28;;;;;;;;;;;;;;;3.84;77.86;101846.86;107554;1255;61243;-82
2023/02/11 00:49:55;;;;;;;;;;;;;;;3.82;77.77;101840.52;107487;1258;124721;-82
2023/02/11 00:52:21;;;;;;;;;;;;;;;3.83;77.82;101820.77;107254;1258;59519;-90
2023/02/11 00:54:48;;;;;;;;;;;;;;;3.85;77.60;101818.77;107036;1257;59894;-91
2023/02/11 00:57:15;;;;;;;;;;;;;;;3.84;77.76;101818.36;107201;1260;124419;-91
2023/02/11 00:59:41;;;;;;;;;;;;;;;3.85;77.71;101805.08;107177;1260;61311;-91
2023/02/11 01:02:07;;;;;;;;;;;;;;;3.82;77.72;101787.83;106994;1256;124204;-90
2023/02/11 01:04:33;;;;;;;;;;;;;;;3.81;77.68;101777.54;106946;1264;61391;-91
2023/02/11 01:07:00;;;;;;;;;;;;;;;3.82;77.72;101782.44;107185;1258;61284;-90
2023/02/11 01:09:58;;;;;;;;;;;;;;;3.80;77.68;101780.98;106986;1257;124377;-90
2023/02/11 01:12:28;;;;;;;;;;;;;;;3.80;77.65;101764.10;107180;1260;60961;-90
2023/02/11 01:14:55;;;;;;;;;;;;;;;3.78;77.74;101753.73;107035;1259;124356;-90
2023/02/11 01:17:21;;;;;;;;;;;;;;;3.77;77.57;101748.05;107127;1258;61429;-91
2023/02/11 01:19:47;;;;;;;;;;;;;;;3.74;77.69;101756.75;107034;1263;125005;-92
2023/02/11 01:22:13;;;;;;;;;;;;;;;3.74;77.67;101759.20;107150;1256;60737;-92
2023/02/11 01:24:40;;;;;;;;;;;;;;;3.75;77.65;101754.90;107022;1260;61459;-84
2023/02/11 01:27:08;;;;;;;;;;;;;;;3.75;77.73;101754.58;106988;1257;124866;-83
2023/02/11 01:29:35;;;;;;;;;;;;;;;3.76;77.64;101758.13;107384;1259;74693;-82
2023/02/11 01:32:02;;;;;;;;;;;;;;;3.77;77.73;101746.55;107176;1257;125154;-82
2023/02/11 01:34:28;;;;;;;;;;;;;;;3.80;77.69;101746.91;107245;1261;61445;-83
2023/02/11 01:36:57;;;;;;;;;;;;;;;3.82;77.59;101745.33;107700;1257;61275;-83
2023/02/11 01:39:24;;;;;;;;;;;;;;;3.85;77.69;101747.80;107150;1257;124598;-83
2023/02/11 01:41:51;;;;;;;;;;;;;;;3.88;77.73;101738.95;107358;1257;74459;-83
2023/02/11 01:44:23;;;;;;;;;;;;;;;3.91;77.76;101732.90;107319;1261;124791;-83
2023/02/11 01:46:51;;;;;;;;;;;;;;;3.93;77.58;101728.19;107430;1257;71524;-83
2023/02/11 01:49:20;;;;;;;;;;;;;;;3.95;77.49;101721.88;107471;1257;61255;-83
2023/02/11 01:51:50;;;;;;;;;;;;;;;3.94;77.60;101711.25;107374;1257;124197;-83
2023/02/11 01:57:21;;;;;;;;;;;;;;;3.93;77.61;101705.97;106952;1257;123909;-83
2023/02/11 02:00:09;;;;;;;;;;;;;;;3.92;77.60;101692.88;107219;1254;72838;-83
2023/02/11 02:02:38;;;;;;;;;;;;;;;3.90;77.69;101678.13;107568;1257;124066;-83
2023/02/11 02:05:07;;;;;;;;;;;;;;;3.87;77.66;101666.83;107194;1258;61233;-83
2023/02/11 02:07:38;;;;;;;;;;;;;;;3.84;77.64;101660.40;107445;1257;74675;-84
2023/02/11 02:10:07;;;;;;;;;;;;;;;3.82;77.78;101660.24;107661;1257;67057;-81
2023/02/11 02:12:33;;;;;;;;;;;;;;;3.79;77.83;101652.23;107397;1260;71386;-81
2023/02/11 02:15:18;;;;;;;;;;;;;;;3.80;77.90;101655.58;106971;1254;124750;-81
2023/02/11 02:17:51;;;;;;;;;;;;;;;3.82;77.97;101656.60;107276;1258;61292;-81
2023/02/11 02:20:18;;;;;;;;;;;;;;;3.81;77.88;101651.87;107493;1257;125727;-81
2023/02/11 02:23:02;;;;;;;;;;;;;;;3.81;77.98;101647.88;107606;1257;67175;-81
2023/02/11 02:25:34;;;;;;;;;;;;;;;3.81;78.14;101658.27;107250;1257;70346;-82
2023/02/11 02:28:19;;;;;;;;;;;;;;;3.83;78.07;101655.59;107202;1258;125224;-81
2023/02/11 02:31:05;;;;;;;;;;;;;;;3.83;78.00;101655.64;108978;1256;58963;-82
2023/02/11 02:33:36;;;;;;;;;;;;;;;3.82;78.08;101647.59;107448;1257;124711;-81
2023/02/11 02:36:06;;;;;;;;;;;;;;;3.84;77.93;101652.91;107212;1254;66202;-81
2023/02/11 02:38:42;;;;;;;;;;;;;;;3.84;78.12;101646.12;107157;1257;123910;-82
2023/02/11 02:41:12;;;;;;;;;;;;;;;3.86;78.10;101645.40;107301;1257;59723;-82
2023/02/11 02:43:44;;;;;;;;;;;;;;;3.86;78.10;101642.98;106980;1257;124696;-83
2023/02/11 02:46:13;;;;;;;;;;;;;;;3.85;78.02;101634.58;107236;1257;73461;-82
2023/02/11 02:48:39;;;;;;;;;;;;;;;3.83;78.10;101622.45;107229;1257;65864;-82
2023/02/11 02:51:05;;;;;;;;;;;;;;;3.81;77.99;101611.55;106885;1257;124436;-82
2023/02/11 02:53:52;;;;;;;;;;;;;;;3.79;78.07;101603.48;107204;1259;61400;-83
2023/02/11 02:56:22;;;;;;;;;;;;;;;3.78;78.03;101596.08;107148;1257;125346;-82
2023/02/11 02:58:49;;;;;;;;;;;;;;;3.77;78.19;101586.66;107206;1262;73426;-83
2023/02/11 03:01:36;;;;;;;;;;;;;;;3.78;78.24;101583.95;107161;1257;67048;-82
2023/02/11 03:04:03;;;;;;;;;;;;;;;3.79;78.25;101576.52;107406;1257;124840;-81
2023/02/11 03:06:30;;;;;;;;;;;;;;;3.80;78.18;101578.67;107352;1257;61273;-81
2023/02/11 03:09:03;;;;;;;;;;;;;;;3.81;78.23;101572.30;107183;1256;125366;-82
2023/02/11 03:11:29;;;;;;;;;;;;;;;3.82;78.23;101567.73;107486;1259;73326;-82
2023/02/11 03:13:56;;;;;;;;;;;;;;;3.83;78.31;101565.17;107384;1260;124840;-82
2023/02/11 03:16:26;;;;;;;;;;;;;;;3.85;78.18;101562.20;107220;1256;72711;-82
2023/02/11 03:18:56;;;;;;;;;;;;;;;3.87;78.23;101555.72;107101;1257;63294;-82
2023/02/11 03:21:22;;;;;;;;;;;;;;;3.88;78.23;101551.41;106929;1256;124706;-81
2023/02/11 03:23:49;;;;;;;;;;;;;;;3.88;78.29;101543.65;106935;1257;59427;-81
2023/02/11 03:26:17;;;;;;;;;;;;;;;3.89;78.32;101544.75;107154;1260;124830;-81
2023/02/11 03:29:08;;;;;;;;;;;;;;;3.90;78.29;101541.33;107460;1254;72473;-80
2023/02/11 03:31:34;;;;;;;;;;;;;;;3.91;78.26;101529.55;107037;1256;61244;-81
2023/02/11 03:34:03;;;;;;;;;;;;;;;3.89;78.25;101524.08;107097;1257;124391;-81
2023/02/11 03:36:34;;;;;;;;;;;;;;;3.88;78.19;101522.82;107332;1256;72991;-82
2023/02/11 03:39:01;;;;;;;;;;;;;;;3.87;78.24;101525.70;106999;1260;124177;-81
2023/02/11 03:41:30;;;;;;;;;;;;;;;3.85;78.32;101533.34;107452;1257;61199;-81
2023/02/11 03:43:56;;;;;;;;;;;;;;;3.84;78.26;101530.17;107129;1263;124407;-81
2023/02/11 03:46:24;;;;;;;;;;;;;;;3.83;78.35;101525.91;107474;1257;61480;-81
2023/02/11 03:48:51;;;;;;;;;;;;;;;3.82;78.26;101509.35;107390;1259;73826;-80
2023/02/11 03:51:17;;;;;;;;;;;;;;;3.82;78.26;101506.27;107097;1257;125186;-82
2023/02/11 03:53:44;;;;;;;;;;;;;;;3.82;78.51;101506.58;107335;1256;61238;-82
2023/02/11 03:56:16;;;;;;;;;;;;;;;3.81;78.47;101509.66;107241;1256;124795;-80
2023/02/11 03:58:45;;;;;;;;;;;;;;;3.84;78.77;101507.56;107077;1256;61226;-80
2023/02/11 04:01:11;;;;;;;;;;;;;;;3.83;78.67;101512.05;107095;1257;74670;-89
2023/02/11 04:03:38;;;;;;;;;;;;;;;3.79;78.77;101509.38;106797;1258;124698;-88
2023/02/11 04:06:04;;;;;;;;;;;;;;;3.81;78.85;101500.83;107332;1257;61964;-88
2023/02/11 04:08:31;;;;;;;;;;;;;;;3.82;78.97;101500.32;107264;1262;124817;-90
2023/02/11 04:11:01;;;;;;;;;;;;;;;3.82;79.04;101500.52;107291;1262;59865;-89
2023/02/11 04:13:32;;;;;;;;;;;;;;;3.83;79.13;101500.91;107236;1257;73454;-89
2023/02/11 04:15:59;;;;;;;;;;;;;;;3.82;79.18;101503.13;107039;1254;124817;-90
2023/02/11 04:18:26;;;;;;;;;;;;;;;3.83;79.13;101497.14;107163;1257;72922;-90
2023/02/11 04:20:52;;;;;;;;;;;;;;;3.84;79.32;101495.23;107211;1254;124744;-91
2023/02/11 04:23:18;;;;;;;;;;;;;;;3.83;79.43;101489.79;107253;1257;61328;-90
2023/02/11 04:25:45;;;;;;;;;;;;;;;3.80;79.32;101479.41;107172;1258;124208;-81
2023/02/11 04:28:11;;;;;;;;;;;;;;;3.79;79.41;101470.83;107623;1257;61297;-81
2023/02/11 04:30:37;;;;;;;;;;;;;;;3.78;79.47;101456.66;107505;1254;59734;-81
2023/02/11 04:33:04;;;;;;;;;;;;;;;3.76;79.55;101453.77;107301;1257;123958;-81
2023/02/11 04:35:30;;;;;;;;;;;;;;;3.73;79.54;101445.23;107419;1257;61241;-81
2023/02/11 04:37:57;;;;;;;;;;;;;;;3.68;79.50;101446.33;107551;1256;125193;-81
2023/02/11 04:40:23;;;;;;;;;;;;;;;3.65;79.85;101442.36;107648;1257;59404;-81
2023/02/11 04:42:49;;;;;;;;;;;;;;;3.64;79.81;101444.21;107621;1257;59762;-81
2023/02/11 04:45:15;;;;;;;;;;;;;;;3.63;79.94;101451.07;108140;1257;125248;-81
2023/02/11 04:47:42;;;;;;;;;;;;;;;3.64;80.08;101446.09;107722;1257;59580;-81
2023/02/11 04:50:08;;;;;;;;;;;;;;;3.66;80.17;101440.79;107166;1257;124894;-81
2023/02/11 04:52:34;;;;;;;;;;;;;;;3.68;80.17;101435.58;107469;1256;61305;-81
2023/02/11 04:55:00;;;;;;;;;;;;;;;3.70;80.27;101423.55;107624;1257;61483;-81
2023/02/11 04:57:27;;;;;;;;;;;;;;;3.71;80.18;101419.99;107436;1258;125283;-81
2023/02/11 04:59:53;;;;;;;;;;;;;;;3.74;80.27;101412.69;107475;1255;61339;-80
2023/02/11 05:02:19;;;;;;;;;;;;;;;3.75;80.24;101401.80;107393;1257;126128;-80
2023/02/11 05:04:48;;;;;;;;;;;;;;;3.76;80.26;101389.68;107695;1257;59782;-80
2023/02/11 05:07:14;;;;;;;;;;;;;;;3.78;80.26;101375.26;107591;1257;61358;-80
2023/02/11 05:09:40;;;;;;;;;;;;;;;3.80;80.30;101363.23;108856;1257;124659;-79
2023/02/11 05:12:06;;;;;;;;;;;;;;;3.83;80.30;101356.84;107916;1256;61383;-79
2023/02/11 05:14:33;;;;;;;;;;;;;;;3.85;80.17;101344.13;107229;1256;125365;-79
2023/02/11 05:16:59;;;;;;;;;;;;;;;3.87;80.26;101343.01;107468;1256;60474;-80
2023/02/11 05:19:26;;;;;;;;;;;;;;;3.86;80.27;101340.52;107716;1257;60559;-80
2023/02/11 05:21:53;;;;;;;;;;;;;;;3.89;80.12;101347.85;107744;1254;125406;-80
2023/02/11 05:24:19;;;;;;;;;;;;;;;3.91;80.24;101338.73;107913;1255;61183;-80
2023/02/11 05:26:45;;;;;;;;;;;;;;;3.94;80.16;101336.83;107570;1258;125098;-79
2023/02/11 05:29:12;;;;;;;;;;;;;;;3.96;80.26;101333.46;107360;1256;61119;-79
2023/02/11 05:31:38;;;;;;;;;;;;;;;3.98;80.27;101331.20;107463;1256;61330;-80
2023/02/11 05:34:04;;;;;;;;;;;;;;;3.99;80.33;101336.80;107776;1256;59597;-79
2023/02/11 05:36:30;;;;;;;;;;;;;;;4.01;80.38;101331.39;107292;1262;59751;-79
2023/02/11 05:38:57;;;;;;;;;;;;;;;4.03;80.34;101331.30;107198;1256;124666;-81
2023/02/11 05:41:23;;;;;;;;;;;;;;;4.04;80.48;101320.45;107035;1255;61481;-82
2023/02/11 05:43:52;;;;;;;;;;;;;;;4.07;80.65;101316.11;107217;1256;124237;-81
2023/02/11 05:46:18;;;;;;;;;;;;;;;4.09;80.54;101309.98;107675;1256;61368;-90
2023/02/11 05:48:46;;;;;;;;;;;;;;;4.09;80.50;101312.75;107343;1262;61298;-89
2023/02/11 05:51:12;;;;;;;;;;;;;;;4.08;80.67;101305.08;107381;1257;124479;-90
2023/02/11 05:54:10;;;;;;;;;;;;;;;4.05;80.58;101297.77;107380;1256;61318;-89
2023/02/11 05:56:36;;;;;;;;;;;;;;;4.02;80.78;101302.98;107405;1256;124871;-80
2023/02/11 05:59:03;;;;;;;;;;;;;;;4.01;80.68;101289.66;107161;1257;59784;-89
2023/02/11 06:01:30;;;;;;;;;;;;;;;3.98;80.82;101284.48;106960;1256;59333;-91
2023/02/11 06:03:59;;;;;;;;;;;;;;;3.97;80.97;101274.00;107304;1254;124568;-89
2023/02/11 06:06:26;;;;;;;;;;;;;;;3.99;80.93;101271.82;107450;1256;66263;-89
2023/02/11 06:08:52;;;;;;;;;;;;;;;3.99;80.87;101267.84;107272;1259;125437;-88
2023/02/11 06:11:19;;;;;;;;;;;;;;;4.00;80.94;101267.58;107148;1256;59939;-87
2023/02/11 06:13:45;;;;;;;;;;;;;;;4.03;80.97;101257.48;106954;1256;124757;-83
2023/02/11 06:16:11;;;;;;;;;;;;;;;4.05;81.04;101255.34;107013;1259;61221;-90
2023/02/11 06:18:39;;;;;;;;;;;;;;;4.08;81.11;101245.65;107109;1254;61354;-90
2023/02/11 06:21:10;;;;;;;;;;;;;;;4.11;81.01;101237.85;107045;1257;124650;-91
2023/02/11 06:23:37;;;;;;;;;;;;;;;4.13;81.06;101227.86;106917;1257;61283;-90
2023/02/11 06:26:04;;;;;;;;;;;;;;;4.15;80.99;101223.81;106976;1254;124925;-89
2023/02/11 06:28:30;;;;;;;;;;;;;;;4.19;81.09;101235.02;107064;1256;74755;-90
2023/02/11 06:30:57;;;;;;;;;;;;;;;4.22;81.14;101232.91;107106;1254;61274;-89
2023/02/11 06:33:23;;;;;;;;;;;;;;;4.26;81.21;101235.05;107063;1256;124743;-90
2023/02/11 06:35:49;;;;;;;;;;;;;;;4.29;81.25;101231.56;107523;1257;61204;-90
2023/02/11 06:38:16;;;;;;;;;;;;;;;4.35;81.33;101235.58;107316;1257;124823;-91
2023/02/11 06:40:48;;;;;;;;;;;;;;;4.40;81.35;101230.83;107254;1257;61374;-90
2023/02/11 06:43:14;;;;;;;;;;;;;;;4.45;81.29;101231.13;107029;1259;67745;-91
2023/02/11 06:45:41;;;;;;;;;;;;;;;4.49;81.09;101233.96;107049;1256;123531;-90
2023/02/11 06:48:07;;;;;;;;;;;;;;;4.52;81.25;101240.20;107266;1256;61701;-89
2023/02/11 06:50:33;;;;;;;;;;;;;;;4.56;81.21;101241.95;106885;1256;124607;-89
2023/02/11 06:53:00;;;;;;;;;;;;;;;4.59;81.31;101238.17;106927;1257;61323;-89
2023/02/11 06:55:26;;;;;;;;;;;;;;;4.62;81.21;101245.14;107086;1256;60491;-90
2023/02/11 06:58:24;;;;;;;;;;;;;;;4.65;81.30;101246.48;106982;1257;124832;-87
2023/02/11 07:00:51;;;;;;;;;;;;;;;4.70;81.30;101257.88;107107;1254;61407;-88
2023/02/11 07:03:17;;;;;;;;;;;;;;;4.72;81.34;101264.30;107191;1255;124938;-90
2023/02/11 07:05:44;;;;;;;;;;;;;;;4.77;81.18;101275.84;106969;1257;60575;-86
2023/02/11 07:08:10;;;;;;;;;;;;;;;4.79;81.28;101272.67;107133;1256;124919;-92
2023/02/11 07:10:36;;;;;;;;;;;;;;;4.84;81.31;101276.79;107234;1256;61342;-89
2023/02/11 07:13:04;;;;;;;;;;;;;;;4.88;81.38;101278.58;107256;1255;61310;-90
2023/02/11 07:16:02;;;;;;;;;;;;;;;4.92;81.40;101283.14;107008;1256;124862;-90
2023/02/11 07:18:29;;;;;;;;;;;;;;;4.97;81.56;101276.26;107158;1256;73057;-85
2023/02/11 07:20:55;;;;;;;;;;;;;;;4.99;81.52;101283.72;107112;1256;125388;-88
2023/02/11 07:23:21;;;;;;;;;;;;;;;5.02;81.49;101279.02;107306;1257;59786;-87
2023/02/11 07:25:49;;;;;;;;;;;;;;;5.05;81.55;101275.16;107278;1257;125089;-89
2023/02/11 07:28:15;;;;;;;;;;;;;;;5.07;81.57;101278.92;107441;1259;61780;-90
2023/02/11 07:31:13;;;;;;;;;;;;;;;5.09;81.63;101264.77;107292;1257;61352;-88
2023/02/11 07:33:39;;;;;;;;;;;;;;;5.12;81.69;101243.72;107032;1255;125447;-88
2023/02/11 07:36:06;;;;;;;;;;;;;;;5.16;81.65;101246.38;107314;1257;61278;-88
2023/02/11 07:38:33;;;;;;;;;;;;;;;5.19;81.64;101239.55;107311;1256;124896;-91
2023/02/11 07:41:02;;;;;;;;;;;;;;;5.22;81.68;101232.76;107303;1257;61303;-90
2023/02/11 07:43:31;;;;;;;;;;;;;;;5.25;81.70;101227.39;107213;1257;73463;-91
2023/02/11 07:45:57;;;;;;;;;;;;;;;5.30;81.59;101229.19;107295;1254;124872;-91
2023/02/11 07:48:24;;;;;;;;;;;;;;;5.34;81.61;101227.98;107237;1256;61452;-88
2023/02/11 07:50:50;;;;;;;;;;;;;;;5.39;81.65;101222.94;107181;1257;125325;-80
2023/02/11 07:53:16;;;;;;;;;;;;;;;5.44;81.57;101225.61;107469;1256;61298;-80
2023/02/11 07:55:42;;;;;;;;;;;;;;;5.47;81.51;101217.40;107402;1255;125856;-81
2023/02/11 07:58:09;;;;;;;;;;;;;;;5.51;81.43;101211.01;107839;1257;61283;-79
2023/02/11 08:00:35;;;;;;;;;;;;;;;5.57;81.42;101211.66;107515;1256;61120;-80
2023/02/11 08:03:02;;;;;;;;;;;;;;;5.63;81.38;101215.33;107523;1256;125184;-79
2023/02/11 08:05:29;;;;;;;;;;;;;;;5.70;81.38;101207.25;107582;1256;61333;-81
2023/02/11 08:07:55;;;;;;;;;;;;;;;5.76;81.28;101203.94;107213;1256;125212;-81
2023/02/11 08:10:21;;;;;;;;;;;;;;;5.84;81.28;101206.45;107460;1256;60735;-80
2023/02/11 08:12:48;;;;;;;;;;;;;;;5.91;81.26;101205.23;107918;1254;61361;-80
2023/02/11 08:15:14;;;;;;;;;;;;;;;5.97;81.14;101194.27;107764;1259;124711;-81
2023/02/11 08:17:40;;;;;;;;;;;;;;;6.04;81.03;101196.50;107488;1259;59590;-84
2023/02/11 08:20:07;;;;;;;;;;;;;;;6.09;80.98;101198.48;107341;1257;125534;-79
2023/02/11 08:22:33;;;;;;;;;;;;;;;6.13;80.92;101200.96;107489;1254;61197;-80
2023/02/11 08:25:00;;;;;;;;;;;;;;;6.15;80.79;101197.95;107572;1255;61373;-81
2023/02/11 08:27:26;;;;;;;;;;;;;;;6.20;80.81;101195.04;107445;1257;123918;-81
2023/02/11 08:29:59;;;;;;;;;;;;;;;6.24;80.74;101196.48;107479;1263;61146;-80
2023/02/11 08:32:25;;;;;;;;;;;;;;;6.24;80.55;101196.45;107266;1262;125101;-85
2023/02/11 08:34:52;;;;;;;;;;;;;;;6.23;80.60;101191.21;107272;1257;61356;-80
2023/02/11 08:37:18;;;;;;;;;;;;;;;6.25;80.54;101173.02;107464;1257;61244;-81
2023/02/11 08:39:46;;;;;;;;;;;;;;;6.28;80.57;101151.33;108480;1254;125341;-81
2023/02/11 08:42:12;;;;;;;;;;;;;;;6.31;80.55;101135.44;108050;1259;59511;-79
2023/02/11 08:44:38;;;;;;;;;;;;;;;6.35;80.53;101137.39;107832;1256;124959;-80
2023/02/11 08:47:06;;;;;;;;;;;;;;;6.41;80.57;101139.27;107712;1259;61246;-79
2023/02/11 08:49:32;;;;;;;;;;;;;;;6.46;80.35;101126.23;108574;1256;72857;-80
2023/02/11 08:52:02;;;;;;;;;;;;;;;6.49;80.45;101120.98;108867;1255;125079;-81
2023/02/11 08:54:29;;;;;;;;;;;;;;;6.52;80.39;101127.23;108844;1256;60007;-79
2023/02/11 08:56:55;;;;;;;;;;;;;;;6.54;80.35;101123.98;107781;1257;125524;-88
2023/02/11 08:59:23;;;;;;;;;;;;;;;6.56;80.34;101126.70;107217;1256;67221;-88
2023/02/11 09:01:51;;;;;;;;;;;;;;;6.61;80.47;101136.52;107106;1257;125369;-88
2023/02/11 09:04:50;;;;;;;;;;;;;;;6.66;80.40;101141.30;107094;1254;61319;-89
2023/02/11 09:07:16;;;;;;;;;;;;;;;6.68;80.41;101153.27;107036;1257;61427;-93
2023/02/11 09:09:43;;;;;;;;;;;;;;;6.69;80.41;101158.53;107019;1256;125626;-90
2023/02/11 09:12:09;;;;;;;;;;;;;;;6.68;80.44;101170.00;106965;1256;61760;-92
2023/02/11 09:14:37;;;;;;;;;;;;;;;6.67;80.44;101167.17;107059;1256;125234;-91
2023/02/11 09:17:09;;;;;;;;;;;;;;;6.67;80.45;101173.11;107331;1256;61273;-89
2023/02/11 09:19:35;;;;;;;;;;;;;;;6.72;80.71;101169.83;107489;1256;59701;-88
2023/02/11 09:22:01;;;;;;;;;;;;;;;6.79;80.75;101173.16;107293;1254;124259;-90
2023/02/11 09:24:27;;;;;;;;;;;;;;;6.94;80.95;101177.30;107182;1257;61422;-87
2023/02/11 09:26:54;;;;;;;;;;;;;;;7.06;80.93;101180.29;107109;1259;124616;-91
2023/02/11 09:29:20;;;;;;;;;;;;;;;7.16;80.91;101173.09;107536;1257;61391;-87
2023/02/11 09:31:46;;;;;;;;;;;;;;;7.28;80.94;101163.68;107497;1257;124674;-85
2023/02/11 09:34:45;;;;;;;;;;;;;;;7.45;81.08;101152.73;107251;1257;61352;-86
2023/02/11 09:37:11;;;;;;;;;;;;;;;7.73;81.12;101154.27;107110;1256;67668;-89
2023/02/11 09:39:38;;;;;;;;;;;;;;;7.91;81.00;101158.36;107273;1257;125028;-88
2023/02/11 09:42:04;;;;;;;;;;;;;;;8.00;80.76;101157.70;107331;1259;61443;-87
2023/02/11 09:44:31;;;;;;;;;;;;;;;8.10;80.61;101164.95;107370;1254;125063;-88
2023/02/11 09:47:01;;;;;;;;;;;;;;;8.27;80.56;101166.88;107453;1257;73190;-88
2023/02/11 09:49:47;;;;;;;;;;;;;;;8.39;80.26;101162.64;106958;1255;357260;-90
2023/02/11 09:52:24;;;;;;;;;;;;;;;8.43;79.91;101167.57;107223;1255;72727;-87
2023/02/11 09:54:53;;;;;;;;;;;;;;;8.46;79.77;101171.34;107092;1256;61337;-89
2023/02/11 09:57:20;;;;;;;;;;;;;;;8.45;79.42;101176.73;107187;1254;125028;-89
2023/02/11 09:59:48;;;;;;;;;;;;;;;8.39;79.39;101191.13;107131;1254;61325;-90
2023/02/11 10:02:23;;;;;;;;;;;;;;;8.36;79.36;101190.29;106900;1256;124401;-86
2023/02/11 10:04:59;;;;;;;;;;;;;;;8.29;79.39;101187.57;107285;1256;72747;-86
2023/02/11 10:07:30;;;;;;;;;;;;;;;8.23;79.52;101181.36;107217;1256;61867;-88
2023/02/11 10:10:00;;;;;;;;;;;;;;;8.17;79.50;101177.48;107012;1254;124539;-88
2023/02/11 10:12:44;;;;;;;;;;;;;;;8.20;79.83;101175.67;107162;1260;73472;-91
2023/02/11 10:15:21;;;;;;;;;;;;;;;8.21;79.72;101163.83;107034;1256;124824;-88
2023/02/11 10:18:05;;;;;;;;;;;;;;;8.16;79.76;101158.02;107140;1257;72176;-91
2023/02/11 10:20:43;;;;;;;;;;;;;;;8.08;79.64;101140.41;107160;1255;124957;-90
2023/02/11 10:23:14;;;;;;;;;;;;;;;8.06;79.90;101160.58;107066;1257;61356;-89
2023/02/11 10:25:44;;;;;;;;;;;;;;;8.17;80.19;101158.06;107070;1255;74399;-90
2023/02/11 10:28:19;;;;;;;;;;;;;;;8.28;80.03;101157.66;106936;1256;124951;-89
2023/02/11 10:31:02;;;;;;;;;;;;;;;8.47;80.27;101164.73;107060;1257;71298;-90
2023/02/11 10:33:31;;;;;;;;;;;;;;;8.75;80.06;101173.37;107103;1260;124952;-82
2023/02/11 10:35:57;;;;;;;;;;;;;;;8.93;79.67;101182.63;107423;1256;59788;-82
2023/02/11 10:38:32;;;;;;;;;;;;;;;8.87;78.59;101194.65;107136;1257;125232;-83
2023/02/11 10:40:59;;;;;;;;;;;;;;;8.70;78.17;101204.14;107237;1254;66756;-87
2023/02/11 10:43:28;;;;;;;;;;;;;;;8.57;78.21;101216.92;107220;1256;60848;-87
2023/02/11 10:45:55;;;;;;;;;;;;;;;8.45;78.24;101218.15;106945;1256;124423;-87
2023/02/11 10:48:38;;;;;;;;;;;;;;;8.35;78.29;101227.85;107156;1254;59544;-87
2023/02/11 10:51:17;;;;;;;;;;;;;;;8.24;78.39;101236.86;106974;1260;125584;-87
2023/02/11 10:53:45;;;;;;;;;;;;;;;8.18;78.66;101246.91;107131;1257;65843;-88
2023/02/11 10:56:19;;;;;;;;;;;;;;;8.11;78.79;101250.64;107143;1260;125188;-88
2023/02/11 10:58:53;;;;;;;;;;;;;;;8.10;79.17;101249.21;107300;1256;61286;-88
2023/02/11 11:01:19;;;;;;;;;;;;;;;8.06;79.17;101258.45;107199;1260;61128;-88
2023/02/11 11:03:46;;;;;;;;;;;;;;;7.96;79.38;101264.86;106981;1258;125224;-88
2023/02/11 11:06:12;;;;;;;;;;;;;;;7.93;79.69;101265.60;107194;1257;65665;-88
2023/02/11 11:08:56;;;;;;;;;;;;;;;7.91;80.10;101269.52;107091;1256;125174;-88
2023/02/11 11:11:24;;;;;;;;;;;;;;;7.92;80.25;101279.85;106933;1257;61200;-89
2023/02/11 11:13:51;;;;;;;;;;;;;;;7.89;80.27;101284.83;107037;1255;124904;-88
2023/02/11 11:16:21;;;;;;;;;;;;;;;7.83;80.47;101291.70;107078;1254;61077;-88
2023/02/11 11:18:52;;;;;;;;;;;;;;;7.82;80.95;101282.73;106949;1256;65863;-87
2023/02/11 11:21:19;;;;;;;;;;;;;;;7.88;81.24;101291.42;107050;1259;124838;-87
2023/02/11 11:23:52;;;;;;;;;;;;;;;7.96;81.31;101299.64;107038;1254;61341;-87
2023/02/11 11:26:23;;;;;;;;;;;;;;;7.98;81.05;101305.84;107029;1259;125236;-88
2023/02/11 11:29:00;;;;;;;;;;;;;;;7.94;80.86;101312.98;107177;1255;75190;-87
2023/02/11 11:31:26;;;;;;;;;;;;;;;7.85;80.91;101317.47;106983;1262;66879;-88
2023/02/11 11:33:53;;;;;;;;;;;;;;;7.80;81.00;101320.57;107306;1254;124740;-88
2023/02/11 11:36:20;;;;;;;;;;;;;;;7.76;81.06;101326.52;107213;1256;61219;-88
2023/02/11 11:38:57;;;;;;;;;;;;;;;7.74;81.07;101326.05;106886;1256;125497;-88
2023/02/11 11:41:30;;;;;;;;;;;;;;;7.67;81.12;101327.32;107093;1256;74717;-88
2023/02/11 11:44:17;;;;;;;;;;;;;;;7.64;81.28;101332.23;107135;1261;125013;-88
2023/02/11 11:46:43;;;;;;;;;;;;;;;7.63;81.45;101330.48;107435;1256;73214;-82
2023/02/11 11:49:12;;;;;;;;;;;;;;;7.64;81.44;101337.66;107535;1256;59513;-82
2023/02/11 11:51:40;;;;;;;;;;;;;;;7.67;81.48;101341.45;107605;1256;124752;-82
2023/02/11 11:54:08;;;;;;;;;;;;;;;7.68;81.54;101344.31;108615;1256;74734;-82
2023/02/11 11:56:36;;;;;;;;;;;;;;;7.67;81.60;101347.23;107518;1255;125524;-83
2023/02/11 11:59:12;;;;;;;;;;;;;;;7.67;81.62;101352.11;107409;1256;71378;-82
2023/02/11 12:01:49;;;;;;;;;;;;;;;7.64;81.71;101350.42;107238;1256;61280;-82
2023/02/11 12:04:16;;;;;;;;;;;;;;;7.66;81.79;101353.65;107259;1255;59310;-82
2023/02/11 12:06:46;;;;;;;;;;;;;;;7.67;81.88;101361.21;107479;1257;59268;-81
2023/02/11 12:09:19;;;;;;;;;;;;;;;7.67;81.81;101368.73;107500;1256;125424;-82
2023/02/11 12:12:01;;;;;;;;;;;;;;;7.67;81.96;101370.11;107643;1257;73000;-82
2023/02/11 12:14:38;;;;;;;;;;;;;;;7.65;81.91;101370.56;107812;1256;125014;-82
2023/02/11 12:17:25;;;;;;;;;;;;;;;7.66;81.97;101374.95;108393;1259;60135;-82
2023/02/11 12:20:12;;;;;;;;;;;;;;;7.65;82.03;101376.86;106960;1256;125363;-82
2023/02/11 12:22:57;;;;;;;;;;;;;;;7.70;82.07;101381.62;107199;1256;67120;-82
2023/02/11 12:25:27;;;;;;;;;;;;;;;7.78;82.13;101379.34;107269;1256;72743;-82
2023/02/11 12:28:02;;;;;;;;;;;;;;;7.86;82.05;101380.09;107151;1257;125025;-82
2023/02/11 12:30:47;;;;;;;;;;;;;;;7.98;82.08;101376.41;108093;1254;61395;-82
2023/02/11 12:33:36;;;;;;;;;;;;;;;8.12;81.81;101379.50;107278;1254;124870;-81
2023/02/11 12:36:03;;;;;;;;;;;;;;;8.24;81.84;101383.21;107264;1257;65875;-82
2023/02/11 12:38:55;;;;;;;;;;;;;;;8.36;81.68;101388.63;107336;1256;124964;-82
2023/02/11 12:44:42;;;;;;;;;;;;;;;8.45;80.94;101398.13;107774;1257;125229;-81
2023/02/11 12:47:15;;;;;;;;;;;;;;;8.41;80.85;101400.73;107706;1258;73432;-82
2023/02/11 12:49:45;;;;;;;;;;;;;;;8.35;80.68;101403.64;107330;1262;66902;-82
2023/02/11 12:52:21;;;;;;;;;;;;;;;8.34;80.75;101411.98;107208;1256;124887;-81